createdAt,value
2019-05-02T00:01:37.302Z,80.20
2019-05-02T00:04:07.319Z,80.60
2019-05-02T00:06:38.116Z,80.20
2019-05-02T00:09:10.986Z,80.60
2019-05-02T00:11:40.212Z,80.90
2019-05-02T00:14:09.927Z,81.00
2019-05-02T00:16:39.835Z,80.30
2019-05-02T00:19:13.935Z,79.70
2019-05-02T00:21:43.082Z,78.50
2019-05-02T00:24:13.407Z,78.30
2019-05-02T00:26:43.006Z,78.70
2019-05-02T00:29:12.714Z,78.50
2019-05-02T00:31:46.821Z,77.80
2019-05-02T00:34:13.877Z,77.20
2019-05-02T00:36:45.273Z,76.60
2019-05-02T00:39:15.231Z,72.40
2019-05-02T00:41:45.156Z,70.50
2019-05-02T00:44:14.864Z,72.70
2019-05-02T00:46:44.547Z,73.30
2019-05-02T00:49:14.179Z,68.80
2019-05-02T00:51:45.620Z,68.70
2019-05-02T00:54:19.276Z,69.80
2019-05-02T00:56:52.121Z,69.20
2019-05-02T00:59:21.812Z,68.70
2019-05-02T01:01:53.051Z,69.00
2019-05-02T01:04:28.823Z,69.50
2019-05-02T01:06:58.716Z,70.60
2019-05-02T01:09:28.453Z,69.70
2019-05-02T01:11:58.062Z,69.90
2019-05-02T01:14:31.823Z,69.70
2019-05-02T01:16:59.021Z,69.90
2019-05-02T01:19:29.691Z,70.40
2019-05-02T01:21:59.331Z,70.60
2019-05-02T01:24:29.069Z,70.80
2019-05-02T01:27:14.152Z,70.40
2019-05-02T01:29:45.459Z,69.70
2019-05-02T01:32:19.396Z,71.80
2019-05-02T01:34:54.428Z,71.20
2019-05-02T01:37:43.407Z,70.90
2019-05-02T01:40:17.555Z,70.50
2019-05-02T01:42:48.630Z,70.40
2019-05-02T01:45:15.669Z,70.10
2019-05-02T01:47:45.409Z,70.30
2019-05-02T01:50:15.017Z,70.70
2019-05-02T01:52:44.726Z,69.90
2019-05-02T01:55:17.039Z,70.50
2019-05-02T01:57:46.030Z,71.80
2019-05-02T02:00:15.775Z,72.40
2019-05-02T02:02:45.484Z,72.90
2019-05-02T02:05:16.178Z,71.90
2019-05-02T02:07:45.822Z,71.00
2019-05-02T02:10:19.904Z,70.40
2019-05-02T02:13:02.824Z,70.40
2019-05-02T02:15:19.110Z,71.50
2019-05-02T02:17:51.485Z,71.60
2019-05-02T02:20:24.102Z,70.80
2019-05-02T02:23:14.132Z,70.50
2019-05-02T02:25:55.607Z,70.70
2019-05-02T02:28:25.314Z,71.60
2019-05-02T02:30:57.539Z,71.70
2019-05-02T02:33:26.271Z,71.50
2019-05-02T02:35:55.985Z,71.30
2019-05-02T02:38:26.788Z,70.90
2019-05-02T02:40:56.908Z,71.50
2019-05-02T02:43:34.069Z,70.20
2019-05-02T02:45:59.942Z,70.20
2019-05-02T02:48:33.890Z,69.90
2019-05-02T02:51:01.382Z,69.70
2019-05-02T02:53:31.013Z,69.30
2019-05-02T02:56:03.547Z,69.10
2019-05-02T02:58:44.060Z,68.90
2019-05-02T03:01:04.456Z,68.80
2019-05-02T03:03:35.433Z,68.30
2019-05-02T03:06:07.812Z,69.20
2019-05-02T03:08:44.647Z,69.60
2019-05-02T03:11:11.433Z,70.30
2019-05-02T03:13:52.485Z,70.80
2019-05-02T03:16:21.452Z,71.00
2019-05-02T03:18:51.131Z,70.90
2019-05-02T03:21:22.569Z,71.10
2019-05-02T03:24:01.448Z,71.00
2019-05-02T03:26:23.464Z,71.90
2019-05-02T03:28:58.545Z,71.80
2019-05-02T03:31:29.692Z,71.70
2019-05-02T03:34:00.539Z,70.80
2019-05-02T03:36:30.022Z,71.40
2019-05-02T03:38:59.229Z,71.30
2019-05-02T03:41:28.993Z,70.80
2019-05-02T03:44:10.662Z,70.70
2019-05-02T03:46:29.924Z,71.40
2019-05-02T03:49:07.469Z,72.00
2019-05-02T03:51:30.909Z,72.90
2019-05-02T03:54:07.283Z,71.00
2019-05-02T03:56:32.865Z,72.70
2019-05-02T03:59:03.828Z,72.30
2019-05-02T04:01:34.586Z,71.60
2019-05-02T04:04:04.955Z,72.70
2019-05-02T04:06:36.425Z,71.40
2019-05-02T04:09:07.399Z,73.00
2019-05-02T04:11:40.699Z,72.30
2019-05-02T04:14:15.170Z,72.80
2019-05-02T04:16:39.680Z,73.00
2019-05-02T04:19:09.391Z,73.50
2019-05-02T04:21:38.997Z,72.70
2019-05-02T04:24:13.357Z,72.60
2019-05-02T04:26:52.094Z,72.30
2019-05-02T04:29:11.609Z,72.70
2019-05-02T04:31:41.322Z,73.60
2019-05-02T04:34:15.329Z,72.10
2019-05-02T04:36:46.116Z,72.70
2019-05-02T04:39:20.516Z,72.60
2019-05-02T04:41:45.049Z,72.90
2019-05-02T04:44:15.371Z,72.70
2019-05-02T04:46:45.110Z,72.50
2019-05-02T04:49:20.075Z,72.30
2019-05-02T04:51:50.704Z,71.80
2019-05-02T04:54:25.910Z,71.70
2019-05-02T04:56:55.004Z,70.90
2019-05-02T04:59:22.926Z,70.60
2019-05-02T05:01:56.976Z,69.10
2019-05-02T05:04:24.536Z,69.30
2019-05-02T05:06:58.194Z,68.40
2019-05-02T05:09:27.758Z,68.10
2019-05-02T05:11:59.001Z,68.40
2019-05-02T05:14:31.372Z,67.20
2019-05-02T05:17:01.214Z,66.20
2019-05-02T05:19:32.696Z,65.90
2019-05-02T05:22:04.926Z,63.90
2019-05-02T05:24:38.494Z,64.60
2019-05-02T05:27:08.123Z,63.70
2019-05-02T05:29:37.520Z,63.70
2019-05-02T05:32:09.946Z,63.40
2019-05-02T05:34:38.684Z,62.30
2019-05-02T05:37:11.600Z,63.40
2019-05-02T05:39:43.156Z,63.20
2019-05-02T05:42:11.960Z,63.00
2019-05-02T05:44:41.722Z,61.50
2019-05-02T05:47:12.186Z,60.80
2019-05-02T05:49:42.781Z,60.10
2019-05-02T05:52:13.412Z,59.20
2019-05-02T05:54:43.124Z,60.10
2019-05-02T05:57:17.473Z,59.40
2019-05-02T05:59:44.182Z,60.30
2019-05-02T06:02:14.741Z,58.60
2019-05-02T06:04:44.624Z,59.40
2019-05-02T06:07:14.335Z,58.90
2019-05-02T06:09:44.046Z,58.80
2019-05-02T06:12:14.781Z,59.50
2019-05-02T06:14:46.456Z,58.50
2019-05-02T06:17:15.736Z,59.10
2019-05-02T06:19:53.030Z,58.80
2019-05-02T06:22:24.481Z,59.80
2019-05-02T06:24:50.933Z,60.00
2019-05-02T06:27:25.525Z,58.50
2019-05-02T06:29:56.210Z,58.60
2019-05-02T06:32:23.183Z,58.40
2019-05-02T06:34:54.689Z,59.50
2019-05-02T06:37:28.485Z,59.00
2019-05-02T06:39:58.149Z,58.90
2019-05-02T06:42:32.406Z,60.70
2019-05-02T06:44:59.766Z,58.50
2019-05-02T06:47:30.586Z,58.80
2019-05-02T06:50:01.110Z,58.80
2019-05-02T06:52:32.626Z,57.80
2019-05-02T06:55:02.994Z,56.70
2019-05-02T06:57:32.703Z,57.00
2019-05-02T07:00:02.315Z,56.70
2019-05-02T07:02:33.546Z,58.90
2019-05-02T07:05:03.750Z,58.30
2019-05-02T07:07:36.989Z,54.30
2019-05-02T07:10:07.820Z,56.30
2019-05-02T07:12:37.622Z,54.70
2019-05-02T07:15:09.464Z,56.70
2019-05-02T07:17:41.832Z,54.30
2019-05-02T07:20:13.254Z,56.70
2019-05-02T07:22:45.556Z,54.00
2019-05-02T07:25:14.363Z,55.30
2019-05-02T07:27:44.078Z,54.40
2019-05-02T07:30:13.885Z,53.50
2019-05-02T07:32:43.567Z,52.20
2019-05-02T07:35:13.306Z,52.00
2019-05-02T07:37:44.050Z,50.80
2019-05-02T07:40:16.836Z,51.10
2019-05-02T07:42:46.607Z,51.30
2019-05-02T07:45:18.309Z,51.50
2019-05-02T07:47:48.102Z,51.80
2019-05-02T07:50:17.792Z,48.00
2019-05-02T07:52:47.495Z,49.20
2019-05-02T07:55:17.230Z,50.50
2019-05-02T07:57:46.943Z,46.00
2019-05-02T08:00:17.457Z,46.10
2019-05-02T08:02:47.183Z,46.20
2019-05-02T08:05:21.827Z,45.90
2019-05-02T08:07:53.351Z,45.20
2019-05-02T08:10:22.175Z,44.70
2019-05-02T08:12:50.943Z,44.80
2019-05-02T08:15:20.621Z,46.00
2019-05-02T08:17:53.694Z,44.30
2019-05-02T08:20:21.804Z,43.50
2019-05-02T08:22:51.416Z,44.90
2019-05-02T08:25:22.113Z,43.70
2019-05-02T08:27:53.371Z,44.00
2019-05-02T08:30:25.947Z,43.70
2019-05-02T08:32:55.686Z,45.30
2019-05-02T08:35:27.887Z,44.60
2019-05-02T08:37:56.746Z,44.60
2019-05-02T08:40:26.453Z,46.00
2019-05-02T08:42:56.575Z,45.90
2019-05-02T08:45:26.523Z,44.80
2019-05-02T08:48:00.317Z,46.30
2019-05-02T08:50:31.909Z,45.90
2019-05-02T08:52:58.870Z,46.40
2019-05-02T08:55:29.970Z,44.90
2019-05-02T08:57:59.850Z,43.80
2019-05-02T09:00:32.067Z,44.20
2019-05-02T09:03:02.538Z,43.80
2019-05-02T09:05:36.887Z,45.10
2019-05-02T09:08:03.503Z,43.90
2019-05-02T09:10:37.037Z,44.20
2019-05-02T09:13:04.536Z,45.00
2019-05-02T09:15:35.319Z,46.10
2019-05-02T09:18:05.494Z,45.50
2019-05-02T09:20:35.233Z,44.10
2019-05-02T09:23:06.076Z,43.30
2019-05-02T09:25:35.778Z,44.00
2019-05-02T09:28:05.372Z,44.10
2019-05-02T09:30:36.036Z,44.60
2019-05-02T09:33:06.844Z,42.00
2019-05-02T09:35:37.688Z,41.70
2019-05-02T09:38:07.356Z,40.70
2019-05-02T09:40:37.083Z,39.70
2019-05-02T09:43:06.790Z,40.90
2019-05-02T09:45:37.847Z,39.30
2019-05-02T09:48:08.398Z,40.10
2019-05-02T09:50:38.460Z,39.30
2019-05-02T09:53:13.006Z,39.50
2019-05-02T09:55:42.302Z,40.30
2019-05-02T09:58:19.583Z,42.10
2019-05-02T10:01:01.867Z,41.40
2019-05-02T10:03:32.799Z,37.20
2019-05-02T10:06:03.182Z,38.30
2019-05-02T10:08:38.229Z,39.70
2019-05-02T10:11:07.315Z,41.20
2019-05-02T10:13:36.934Z,38.90
2019-05-02T10:16:07.478Z,41.60
2019-05-02T10:18:37.166Z,39.40
2019-05-02T10:21:07.958Z,37.40
2019-05-02T10:23:38.257Z,37.80
2019-05-02T10:26:12.306Z,38.50
2019-05-02T10:28:41.850Z,39.90
2019-05-02T10:31:12.600Z,37.30
2019-05-02T10:33:43.097Z,36.50
2019-05-02T10:36:19.831Z,36.10
2019-05-02T10:38:43.960Z,37.90
2019-05-02T10:41:13.643Z,37.70
2019-05-02T10:43:46.963Z,35.90
2019-05-02T10:46:16.266Z,36.40
2019-05-02T10:48:47.510Z,34.20
2019-05-02T10:51:18.727Z,36.40
2019-05-02T10:53:52.679Z,33.10
2019-05-02T10:56:19.815Z,32.20
2019-05-02T10:58:49.525Z,32.00
2019-05-02T11:01:21.860Z,31.80
2019-05-02T11:03:52.836Z,30.80
2019-05-02T11:06:22.470Z,31.10
2019-05-02T11:08:52.630Z,33.60
2019-05-02T11:11:23.096Z,34.50
2019-05-02T11:14:00.612Z,29.00
2019-05-02T11:16:49.548Z,28.70
2019-05-02T11:19:26.836Z,28.20
2019-05-02T11:21:59.048Z,28.30
2019-05-02T11:24:31.551Z,29.00
2019-05-02T11:26:59.138Z,31.00
2019-05-02T11:29:28.824Z,30.00
2019-05-02T11:31:58.561Z,26.60
2019-05-02T11:34:28.244Z,27.20
2019-05-02T11:36:57.884Z,28.10
2019-05-02T11:39:35.378Z,28.00
2019-05-02T11:41:58.809Z,26.60
2019-05-02T11:44:28.544Z,26.30
2019-05-02T11:46:58.253Z,27.50
2019-05-02T11:49:27.967Z,27.40
2019-05-02T11:52:01.422Z,25.30
2019-05-02T11:54:31.842Z,26.70
2019-05-02T11:57:02.205Z,24.40
2019-05-02T11:59:32.141Z,22.90
2019-05-02T12:02:09.448Z,22.80
2019-05-02T12:04:53.976Z,23.00
2019-05-02T12:07:22.992Z,25.70
2019-05-02T12:09:57.146Z,25.30
2019-05-02T12:12:27.284Z,27.40
2019-05-02T12:14:54.966Z,27.20
2019-05-02T12:17:24.677Z,25.50
2019-05-02T12:19:54.359Z,22.90
2019-05-02T12:22:24.096Z,21.60
2019-05-02T12:24:53.911Z,22.80
2019-05-02T12:27:23.594Z,20.60
2019-05-02T12:29:57.727Z,22.30
2019-05-02T12:32:24.578Z,22.60
2019-05-02T12:34:56.006Z,21.70
2019-05-02T12:37:25.634Z,23.80
2019-05-02T12:39:55.316Z,22.30
2019-05-02T12:42:26.569Z,22.30
2019-05-02T12:44:56.402Z,24.40
2019-05-02T12:47:26.112Z,26.20
2019-05-02T12:49:56.854Z,23.40
2019-05-02T12:52:26.529Z,23.40
2019-05-02T12:54:56.239Z,23.30
2019-05-02T12:57:25.977Z,24.20
2019-05-02T12:59:55.686Z,23.20
2019-05-02T13:02:27.041Z,23.70
2019-05-02T13:04:56.744Z,22.70
2019-05-02T13:07:26.456Z,21.50
2019-05-02T13:09:56.039Z,21.20
2019-05-02T13:12:32.137Z,20.50
2019-05-02T13:15:02.151Z,20.00
2019-05-02T13:17:37.178Z,20.60
2019-05-02T13:20:05.150Z,21.90
2019-05-02T13:22:39.257Z,22.90
2019-05-02T13:25:10.477Z,22.00
2019-05-02T13:27:46.141Z,20.60
2019-05-02T13:30:13.172Z,22.10
2019-05-02T13:32:48.190Z,21.00
2019-05-02T13:35:34.219Z,21.30
2019-05-02T13:38:03.939Z,22.60
2019-05-02T13:40:35.183Z,21.40
2019-05-02T13:43:04.815Z,21.90
2019-05-02T13:45:36.036Z,21.10
2019-05-02T13:48:05.849Z,19.90
2019-05-02T13:50:35.560Z,17.90
2019-05-02T13:53:05.245Z,18.20
2019-05-02T13:55:39.280Z,19.00
2019-05-02T13:58:08.989Z,19.40
2019-05-02T14:00:42.344Z,21.30
2019-05-02T14:03:11.928Z,21.20
2019-05-02T14:05:49.138Z,21.70
2019-05-02T14:08:27.666Z,21.00
2019-05-02T14:10:58.816Z,20.70
2019-05-02T14:13:28.523Z,22.00
2019-05-02T14:15:58.261Z,22.10
2019-05-02T14:18:31.208Z,22.70
2019-05-02T14:20:59.320Z,23.40
2019-05-02T14:23:29.029Z,22.20
2019-05-02T14:25:58.739Z,19.20
2019-05-02T14:28:32.249Z,18.50
2019-05-02T14:31:02.137Z,18.00
2019-05-02T14:33:35.419Z,17.50
2019-05-02T14:36:05.055Z,18.20
2019-05-02T14:38:34.634Z,18.30
2019-05-02T14:41:15.410Z,16.60
2019-05-02T14:43:53.485Z,16.90
2019-05-02T14:46:29.011Z,19.30
2019-05-02T14:48:58.166Z,18.80
2019-05-02T14:51:28.207Z,17.70
2019-05-02T14:54:03.556Z,17.10
2019-05-02T14:56:47.553Z,19.80
2019-05-02T14:59:18.432Z,18.10
2019-05-02T15:01:47.031Z,19.90
2019-05-02T15:04:16.095Z,17.90
2019-05-02T15:06:47.571Z,18.50
2019-05-02T15:09:22.628Z,18.70
2019-05-02T15:12:02.679Z,18.00
2019-05-02T15:14:33.034Z,19.30
2019-05-02T15:17:03.059Z,18.90
2019-05-02T15:19:33.188Z,19.00
2019-05-02T15:22:03.346Z,20.70
2019-05-02T15:24:37.353Z,18.70
2019-05-02T15:27:12.110Z,19.80
2019-05-02T15:29:36.600Z,20.40
2019-05-02T15:32:12.661Z,22.70
2019-05-02T15:34:55.786Z,21.20
2019-05-02T15:37:25.870Z,21.20
2019-05-02T15:42:27.091Z,24.00
2019-05-02T15:44:57.178Z,23.60
2019-05-02T15:47:28.046Z,23.70
2019-05-02T15:49:57.730Z,25.00
2019-05-02T15:52:29.003Z,25.30
2019-05-02T15:55:00.394Z,26.70
2019-05-02T15:57:40.989Z,26.20
2019-05-02T16:00:01.647Z,25.90
2019-05-02T16:02:33.142Z,27.20
2019-05-02T16:05:05.438Z,27.10
2019-05-02T16:07:38.103Z,26.00
2019-05-02T16:10:07.063Z,27.00
2019-05-02T16:12:37.540Z,26.60
2019-05-02T16:15:13.183Z,28.00
2019-05-02T16:17:38.605Z,28.90
2019-05-02T16:20:13.367Z,27.50
2019-05-02T16:22:49.257Z,27.20
2019-05-02T16:25:14.664Z,30.20
2019-05-02T16:27:45.842Z,29.40
2019-05-02T16:30:19.375Z,28.60
2019-05-02T16:33:02.714Z,28.70
2019-05-02T16:35:34.119Z,29.50
2019-05-02T16:38:03.925Z,27.80
2019-05-02T16:40:34.920Z,27.70
2019-05-02T16:43:04.783Z,28.30
2019-05-02T16:45:34.489Z,28.90
2019-05-02T16:48:04.302Z,30.70
2019-05-02T16:50:36.776Z,31.10
2019-05-02T16:53:06.284Z,30.10
2019-05-02T16:55:35.863Z,31.70
2019-05-02T16:58:07.276Z,31.20
2019-05-02T17:00:41.317Z,30.90
2019-05-02T17:03:08.194Z,34.50
2019-05-02T17:05:39.230Z,32.80
2019-05-02T17:08:19.817Z,34.10
2019-05-02T17:10:56.750Z,35.30
2019-05-02T17:13:27.382Z,34.90
2019-05-02T17:15:55.382Z,34.60
2019-05-02T17:18:25.111Z,36.30
2019-05-02T17:20:56.769Z,35.50
2019-05-02T17:23:26.122Z,38.00
2019-05-02T17:25:55.860Z,36.60
2019-05-02T17:28:25.542Z,38.50
2019-05-02T17:30:55.280Z,39.70
2019-05-02T17:33:24.962Z,38.50
2019-05-02T17:35:54.600Z,37.00
2019-05-02T17:38:29.042Z,37.20
2019-05-02T17:40:59.225Z,38.70
2019-05-02T17:43:26.903Z,38.00
2019-05-02T17:45:56.633Z,37.90
2019-05-02T17:48:29.337Z,38.60
2019-05-02T17:51:01.965Z,41.20
2019-05-02T17:53:33.524Z,40.50
2019-05-02T17:56:02.826Z,40.20
2019-05-02T17:58:32.511Z,41.70
2019-05-02T18:01:03.754Z,42.80
2019-05-02T18:03:35.308Z,41.50
2019-05-02T18:06:07.464Z,41.20
2019-05-02T18:08:36.194Z,40.80
2019-05-02T18:11:06.926Z,42.10
2019-05-02T18:13:37.592Z,42.10
2019-05-02T18:16:15.065Z,44.10
2019-05-02T18:18:43.820Z,43.30
2019-05-02T18:21:09.935Z,43.60
2019-05-02T18:23:39.570Z,45.50
2019-05-02T18:26:09.285Z,46.50
2019-05-02T18:28:46.869Z,48.00
2019-05-02T18:31:12.056Z,48.00
2019-05-02T18:33:42.555Z,49.50
2019-05-02T18:36:12.217Z,49.90
2019-05-02T18:38:41.916Z,50.40
2019-05-02T18:41:12.616Z,51.00
2019-05-02T18:43:45.158Z,54.70
2019-05-02T18:46:13.598Z,54.40
2019-05-02T18:48:46.205Z,54.10
2019-05-02T18:51:17.230Z,54.90
2019-05-02T18:53:46.230Z,55.50
2019-05-02T18:56:15.858Z,53.50
2019-05-02T18:58:45.546Z,53.10
2019-05-02T19:01:18.454Z,53.40
2019-05-02T19:03:52.480Z,53.60
2019-05-02T19:06:18.746Z,53.60
2019-05-02T19:08:50.280Z,54.60
2019-05-02T19:11:19.729Z,55.70
2019-05-02T19:13:52.595Z,55.10
2019-05-02T19:16:24.941Z,54.20
2019-05-02T19:18:55.819Z,53.90
2019-05-02T19:21:26.470Z,55.00
2019-05-02T19:23:55.610Z,55.50
2019-05-02T19:26:26.330Z,56.50
2019-05-02T19:28:57.633Z,56.90
2019-05-02T19:31:31.927Z,57.00
2019-05-02T19:34:02.296Z,57.40
2019-05-02T19:36:33.262Z,57.40
2019-05-02T19:39:06.356Z,57.10
2019-05-02T19:41:38.905Z,57.60
2019-05-02T19:44:05.827Z,57.60
2019-05-02T19:46:38.891Z,59.10
2019-05-02T19:49:11.357Z,59.50
2019-05-02T19:51:38.234Z,59.10
2019-05-02T19:54:07.810Z,59.70
2019-05-02T19:56:45.455Z,60.60
2019-05-02T19:59:08.772Z,59.40
2019-05-02T20:01:38.478Z,59.10
2019-05-02T20:04:09.517Z,61.40
2019-05-02T20:06:39.541Z,61.40
2019-05-02T20:09:09.176Z,62.00
2019-05-02T20:11:39.471Z,62.20
2019-05-02T20:14:09.769Z,61.90
2019-05-02T20:16:45.832Z,60.30
2019-05-02T20:19:17.260Z,60.90
2019-05-02T20:21:57.195Z,59.50
2019-05-02T20:24:26.660Z,60.00
2019-05-02T20:26:56.401Z,59.10
2019-05-02T20:29:26.106Z,59.30
2019-05-02T20:31:55.822Z,58.90
2019-05-02T20:34:25.504Z,58.90
2019-05-02T20:36:55.236Z,59.20
2019-05-02T20:39:24.946Z,60.20
2019-05-02T20:41:54.657Z,60.50
2019-05-02T20:44:25.308Z,59.70
2019-05-02T20:46:56.926Z,59.50
2019-05-02T20:49:26.318Z,61.10
2019-05-02T20:51:56.056Z,64.40
2019-05-02T20:54:25.739Z,66.50
2019-05-02T20:56:57.211Z,67.20
2019-05-02T20:59:27.030Z,68.80
2019-05-02T21:01:56.741Z,69.00
2019-05-02T21:04:28.196Z,71.20
2019-05-02T21:07:16.202Z,74.10
2019-05-02T21:09:47.452Z,75.30
2019-05-02T21:12:17.188Z,77.70
2019-05-02T21:14:46.898Z,79.20
2019-05-02T21:17:18.222Z,82.90
2019-05-02T21:19:47.854Z,87.00
2019-05-02T21:22:22.658Z,90.00
2019-05-02T21:24:52.874Z,90.40
2019-05-02T21:27:22.795Z,90.90
2019-05-02T21:29:52.531Z,90.70
2019-05-02T21:32:22.879Z,91.20
2019-05-02T21:34:54.989Z,91.50
2019-05-02T21:37:25.736Z,92.50
2019-05-02T21:39:55.470Z,92.80
2019-05-02T21:42:25.150Z,93.50
2019-05-02T21:44:56.552Z,93.60
2019-05-02T21:47:26.339Z,94.00
2019-05-02T21:49:57.566Z,94.60
2019-05-02T21:52:31.919Z,94.60
2019-05-02T21:55:17.974Z,94.60
2019-05-02T21:57:47.710Z,94.60
2019-05-02T22:00:24.996Z,94.30
2019-05-02T22:02:56.242Z,94.10
2019-05-02T22:05:26.872Z,93.90
2019-05-02T22:07:58.300Z,94.40
2019-05-02T22:10:27.903Z,94.10
2019-05-02T22:12:57.641Z,93.90
2019-05-02T22:15:27.249Z,94.10
2019-05-02T22:17:56.959Z,94.30
2019-05-02T22:20:26.669Z,94.20
2019-05-02T22:22:58.074Z,93.80
2019-05-02T22:25:27.698Z,94.10
2019-05-02T22:27:57.441Z,94.10
2019-05-02T22:30:27.149Z,93.80
2019-05-02T22:32:57.878Z,94.40
2019-05-02T22:35:27.592Z,93.80
2019-05-02T22:38:02.250Z,93.60
2019-05-02T22:40:32.302Z,94.00
2019-05-02T22:43:01.915Z,93.70
2019-05-02T22:45:34.404Z,94.00
2019-05-02T22:48:04.000Z,94.30
2019-05-02T22:50:33.739Z,93.90
2019-05-02T22:53:03.346Z,94.10
2019-05-02T22:55:33.028Z,94.40
2019-05-02T22:58:02.768Z,94.30
2019-05-02T23:00:33.603Z,93.90
2019-05-02T23:03:03.284Z,94.30
2019-05-02T23:05:34.415Z,94.00
2019-05-02T23:08:05.160Z,94.10
2019-05-02T23:10:34.797Z,93.90
2019-05-02T23:13:04.479Z,93.80
2019-05-02T23:15:35.114Z,94.10
2019-05-02T23:18:04.928Z,93.90
2019-05-02T23:20:34.530Z,94.00
2019-05-02T23:23:04.343Z,94.30
2019-05-02T23:25:53.151Z,93.90
2019-05-02T23:28:31.787Z,93.80
2019-05-02T23:31:02.592Z,93.80
2019-05-02T23:33:51.629Z,93.70
2019-05-02T23:36:22.355Z,93.90
2019-05-02T23:38:53.702Z,93.40
2019-05-02T23:41:25.220Z,94.00
2019-05-02T23:43:55.669Z,94.20
2019-05-02T23:46:25.321Z,93.30
2019-05-02T23:48:54.904Z,93.60
2019-05-02T23:51:24.607Z,93.20
2019-05-02T23:53:55.272Z,93.50
2019-05-02T23:56:26.004Z,93.00
2019-05-02T23:58:55.612Z,93.00
